sensor_id;sensor_type;location;lat;lon;timestamp;P1;durP1;ratioP1;P2;durP2;ratioP2
65275;SDS011;51875;49.994;14.052;2023-08-17T00:00:37;7.40;;;5.68;;
65275;SDS011;51875;49.994;14.052;2023-08-17T00:02:13;8.13;;;5.68;;
65275;SDS011;51875;49.994;14.052;2023-08-17T00:03:29;10.18;;;6.03;;
65275;SDS011;51875;49.994;14.052;2023-08-17T00:04:45;7.68;;;5.47;;
65275;SDS011;51875;49.994;14.052;2023-08-17T00:06:00;8.15;;;5.75;;
65275;SDS011;51875;49.994;14.052;2023-08-17T00:07:15;7.57;;;6.15;;
65275;SDS011;51875;49.994;14.052;2023-08-17T00:08:31;8.63;;;6.53;;
65275;SDS011;51875;49.994;14.052;2023-08-17T00:09:47;7.38;;;5.43;;
65275;SDS011;51875;49.994;14.052;2023-08-17T00:11:03;8.65;;;6.28;;
65275;SDS011;51875;49.994;14.052;2023-08-17T00:12:18;8.07;;;5.88;;
65275;SDS011;51875;49.994;14.052;2023-08-17T00:13:34;10.00;;;6.03;;
65275;SDS011;51875;49.994;14.052;2023-08-17T00:14:51;9.15;;;6.03;;
65275;SDS011;51875;49.994;14.052;2023-08-17T00:16:07;7.70;;;6.10;;
65275;SDS011;51875;49.994;14.052;2023-08-17T00:17:22;8.65;;;5.97;;
65275;SDS011;51875;49.994;14.052;2023-08-17T00:18:38;9.00;;;5.55;;
65275;SDS011;51875;49.994;14.052;2023-08-17T00:19:54;8.80;;;6.05;;
65275;SDS011;51875;49.994;14.052;2023-08-17T00:21:09;10.30;;;6.15;;
65275;SDS011;51875;49.994;14.052;2023-08-17T00:22:25;10.85;;;6.00;;
65275;SDS011;51875;49.994;14.052;2023-08-17T00:23:41;9.30;;;6.25;;
65275;SDS011;51875;49.994;14.052;2023-08-17T00:24:56;8.13;;;5.65;;
65275;SDS011;51875;49.994;14.052;2023-08-17T00:26:11;9.88;;;6.57;;
65275;SDS011;51875;49.994;14.052;2023-08-17T00:27:29;8.38;;;6.15;;
65275;SDS011;51875;49.994;14.052;2023-08-17T00:28:47;8.18;;;6.47;;
65275;SDS011;51875;49.994;14.052;2023-08-17T00:30:02;9.23;;;6.13;;
65275;SDS011;51875;49.994;14.052;2023-08-17T00:31:18;8.18;;;6.32;;
65275;SDS011;51875;49.994;14.052;2023-08-17T00:32:34;8.15;;;6.72;;
65275;SDS011;51875;49.994;14.052;2023-08-17T00:33:50;9.48;;;6.30;;
65275;SDS011;51875;49.994;14.052;2023-08-17T00:35:05;9.35;;;6.28;;
65275;SDS011;51875;49.994;14.052;2023-08-17T00:36:21;10.95;;;6.20;;
65275;SDS011;51875;49.994;14.052;2023-08-17T00:37:37;9.35;;;6.47;;
65275;SDS011;51875;49.994;14.052;2023-08-17T00:38:52;7.22;;;5.95;;
65275;SDS011;51875;49.994;14.052;2023-08-17T00:40:08;12.60;;;6.63;;
65275;SDS011;51875;49.994;14.052;2023-08-17T00:41:24;9.15;;;6.50;;
65275;SDS011;51875;49.994;14.052;2023-08-17T00:42:40;8.48;;;6.18;;
65275;SDS011;51875;49.994;14.052;2023-08-17T00:43:56;9.25;;;6.78;;
65275;SDS011;51875;49.994;14.052;2023-08-17T00:45:11;8.35;;;6.53;;
65275;SDS011;51875;49.994;14.052;2023-08-17T00:46:27;10.57;;;6.65;;
65275;SDS011;51875;49.994;14.052;2023-08-17T00:47:45;8.95;;;6.40;;
65275;SDS011;51875;49.994;14.052;2023-08-17T00:49:01;9.98;;;6.82;;
65275;SDS011;51875;49.994;14.052;2023-08-17T00:50:16;11.93;;;6.38;;
65275;SDS011;51875;49.994;14.052;2023-08-17T00:51:32;7.40;;;5.88;;
65275;SDS011;51875;49.994;14.052;2023-08-17T00:52:49;9.73;;;6.53;;
65275;SDS011;51875;49.994;14.052;2023-08-17T00:54:06;8.43;;;6.43;;
65275;SDS011;51875;49.994;14.052;2023-08-17T00:55:22;8.82;;;6.50;;
65275;SDS011;51875;49.994;14.052;2023-08-17T00:56:38;9.88;;;6.05;;
65275;SDS011;51875;49.994;14.052;2023-08-17T00:57:54;8.93;;;7.13;;
65275;SDS011;51875;49.994;14.052;2023-08-17T00:59:11;9.20;;;6.90;;
65275;SDS011;51875;49.994;14.052;2023-08-17T01:00:27;9.25;;;6.80;;
65275;SDS011;51875;49.994;14.052;2023-08-17T01:01:42;9.80;;;6.65;;
65275;SDS011;51875;49.994;14.052;2023-08-17T01:02:59;8.93;;;6.97;;
65275;SDS011;51875;49.994;14.052;2023-08-17T01:04:14;8.77;;;6.68;;
65275;SDS011;51875;49.994;14.052;2023-08-17T01:05:30;12.60;;;7.13;;
65275;SDS011;51875;49.994;14.052;2023-08-17T01:06:47;9.20;;;6.75;;
65275;SDS011;51875;49.994;14.052;2023-08-17T01:08:03;13.38;;;6.82;;
65275;SDS011;51875;49.994;14.052;2023-08-17T01:09:19;11.60;;;6.70;;
65275;SDS011;51875;49.994;14.052;2023-08-17T01:12:32;10.70;;;6.35;;
65275;SDS011;51875;49.994;14.052;2023-08-17T01:14:02;8.85;;;6.75;;
65275;SDS011;51875;49.994;14.052;2023-08-17T01:15:31;7.72;;;6.25;;
65275;SDS011;51875;49.994;14.052;2023-08-17T01:17:03;7.75;;;6.10;;
65275;SDS011;51875;49.994;14.052;2023-08-17T01:19:43;9.32;;;6.75;;
65275;SDS011;51875;49.994;14.052;2023-08-17T01:21:00;10.90;;;6.78;;
65275;SDS011;51875;49.994;14.052;2023-08-17T01:22:20;8.38;;;5.82;;
65275;SDS011;51875;49.994;14.052;2023-08-17T01:23:37;7.90;;;6.22;;
65275;SDS011;51875;49.994;14.052;2023-08-17T01:24:56;9.15;;;6.65;;
65275;SDS011;51875;49.994;14.052;2023-08-17T01:26:14;10.55;;;6.72;;
65275;SDS011;51875;49.994;14.052;2023-08-17T01:27:44;8.00;;;6.60;;
65275;SDS011;51875;49.994;14.052;2023-08-17T01:29:01;7.80;;;6.30;;
65275;SDS011;51875;49.994;14.052;2023-08-17T01:30:17;8.63;;;6.70;;
65275;SDS011;51875;49.994;14.052;2023-08-17T01:31:40;11.68;;;7.07;;
65275;SDS011;51875;49.994;14.052;2023-08-17T01:33:22;8.40;;;6.20;;
65275;SDS011;51875;49.994;14.052;2023-08-17T01:34:44;10.93;;;7.15;;
65275;SDS011;51875;49.994;14.052;2023-08-17T01:36:07;9.02;;;6.45;;
65275;SDS011;51875;49.994;14.052;2023-08-17T01:37:28;10.75;;;6.65;;
65275;SDS011;51875;49.994;14.052;2023-08-17T01:38:46;8.63;;;7.13;;
65275;SDS011;51875;49.994;14.052;2023-08-17T01:40:05;8.07;;;6.78;;
65275;SDS011;51875;49.994;14.052;2023-08-17T01:41:23;12.57;;;7.68;;
65275;SDS011;51875;49.994;14.052;2023-08-17T01:42:41;12.48;;;7.35;;
65275;SDS011;51875;49.994;14.052;2023-08-17T01:43:57;8.70;;;6.47;;
65275;SDS011;51875;49.994;14.052;2023-08-17T01:45:14;10.32;;;7.18;;
65275;SDS011;51875;49.994;14.052;2023-08-17T01:46:33;11.25;;;6.38;;
65275;SDS011;51875;49.994;14.052;2023-08-17T01:47:49;10.55;;;6.95;;
65275;SDS011;51875;49.994;14.052;2023-08-17T01:49:04;10.75;;;6.70;;
65275;SDS011;51875;49.994;14.052;2023-08-17T01:50:20;11.07;;;6.82;;
65275;SDS011;51875;49.994;14.052;2023-08-17T01:51:36;8.23;;;6.35;;
65275;SDS011;51875;49.994;14.052;2023-08-17T01:52:51;9.10;;;6.85;;
65275;SDS011;51875;49.994;14.052;2023-08-17T01:54:07;8.80;;;6.75;;
65275;SDS011;51875;49.994;14.052;2023-08-17T01:55:23;8.73;;;7.25;;
65275;SDS011;51875;49.994;14.052;2023-08-17T01:56:39;9.68;;;6.55;;
65275;SDS011;51875;49.994;14.052;2023-08-17T01:57:54;8.63;;;6.68;;
65275;SDS011;51875;49.994;14.052;2023-08-17T01:59:10;9.63;;;7.10;;
65275;SDS011;51875;49.994;14.052;2023-08-17T02:00:26;12.82;;;7.22;;
65275;SDS011;51875;49.994;14.052;2023-08-17T02:01:41;11.65;;;7.47;;
65275;SDS011;51875;49.994;14.052;2023-08-17T02:02:57;12.38;;;7.55;;
65275;SDS011;51875;49.994;14.052;2023-08-17T02:04:12;9.07;;;7.50;;
65275;SDS011;51875;49.994;14.052;2023-08-17T02:05:28;10.10;;;7.10;;
65275;SDS011;51875;49.994;14.052;2023-08-17T02:06:44;9.57;;;7.25;;
65275;SDS011;51875;49.994;14.052;2023-08-17T02:07:59;10.75;;;7.22;;
65275;SDS011;51875;49.994;14.052;2023-08-17T02:09:15;8.93;;;6.82;;
65275;SDS011;51875;49.994;14.052;2023-08-17T02:10:31;12.95;;;8.18;;
65275;SDS011;51875;49.994;14.052;2023-08-17T02:11:46;9.25;;;7.60;;
65275;SDS011;51875;49.994;14.052;2023-08-17T02:13:02;12.63;;;8.40;;
65275;SDS011;51875;49.994;14.052;2023-08-17T02:14:17;8.77;;;7.25;;
65275;SDS011;51875;49.994;14.052;2023-08-17T02:15:37;10.80;;;7.85;;
65275;SDS011;51875;49.994;14.052;2023-08-17T02:16:54;9.80;;;7.10;;
65275;SDS011;51875;49.994;14.052;2023-08-17T02:18:09;11.48;;;7.53;;
65275;SDS011;51875;49.994;14.052;2023-08-17T02:19:25;10.25;;;7.18;;
65275;SDS011;51875;49.994;14.052;2023-08-17T02:20:41;13.15;;;8.13;;
65275;SDS011;51875;49.994;14.052;2023-08-17T02:21:56;11.25;;;7.93;;
65275;SDS011;51875;49.994;14.052;2023-08-17T02:23:12;13.55;;;8.25;;
65275;SDS011;51875;49.994;14.052;2023-08-17T02:24:27;11.85;;;7.90;;
65275;SDS011;51875;49.994;14.052;2023-08-17T02:25:43;11.38;;;8.07;;
65275;SDS011;51875;49.994;14.052;2023-08-17T02:26:59;11.18;;;7.72;;
65275;SDS011;51875;49.994;14.052;2023-08-17T02:28:14;10.35;;;7.43;;
65275;SDS011;51875;49.994;14.052;2023-08-17T02:29:30;10.50;;;7.93;;
65275;SDS011;51875;49.994;14.052;2023-08-17T02:30:46;9.57;;;7.80;;
65275;SDS011;51875;49.994;14.052;2023-08-17T02:32:03;9.15;;;7.57;;
65275;SDS011;51875;49.994;14.052;2023-08-17T02:33:19;8.95;;;7.32;;
65275;SDS011;51875;49.994;14.052;2023-08-17T02:34:34;10.35;;;8.15;;
65275;SDS011;51875;49.994;14.052;2023-08-17T02:35:50;10.80;;;7.63;;
65275;SDS011;51875;49.994;14.052;2023-08-17T02:37:06;11.20;;;7.78;;
65275;SDS011;51875;49.994;14.052;2023-08-17T02:38:22;11.32;;;8.25;;
65275;SDS011;51875;49.994;14.052;2023-08-17T02:39:37;10.20;;;6.75;;
65275;SDS011;51875;49.994;14.052;2023-08-17T02:40:53;10.18;;;7.55;;
65275;SDS011;51875;49.994;14.052;2023-08-17T02:42:08;11.38;;;8.00;;
65275;SDS011;51875;49.994;14.052;2023-08-17T02:43:24;10.25;;;8.13;;
65275;SDS011;51875;49.994;14.052;2023-08-17T02:44:39;10.75;;;8.15;;
65275;SDS011;51875;49.994;14.052;2023-08-17T02:45:55;11.68;;;7.93;;
65275;SDS011;51875;49.994;14.052;2023-08-17T02:47:11;10.90;;;8.13;;
65275;SDS011;51875;49.994;14.052;2023-08-17T02:48:26;10.70;;;8.00;;
65275;SDS011;51875;49.994;14.052;2023-08-17T02:49:42;10.52;;;7.50;;
65275;SDS011;51875;49.994;14.052;2023-08-17T02:50:58;10.65;;;7.88;;
65275;SDS011;51875;49.994;14.052;2023-08-17T02:52:13;10.57;;;8.10;;
65275;SDS011;51875;49.994;14.052;2023-08-17T02:53:29;10.80;;;8.00;;
65275;SDS011;51875;49.994;14.052;2023-08-17T02:54:45;13.13;;;8.57;;
65275;SDS011;51875;49.994;14.052;2023-08-17T02:56:00;11.75;;;7.95;;
65275;SDS011;51875;49.994;14.052;2023-08-17T02:57:16;10.95;;;7.70;;
65275;SDS011;51875;49.994;14.052;2023-08-17T02:58:32;10.00;;;7.60;;
65275;SDS011;51875;49.994;14.052;2023-08-17T02:59:48;10.55;;;7.38;;
65275;SDS011;51875;49.994;14.052;2023-08-17T03:01:04;9.20;;;7.35;;
65275;SDS011;51875;49.994;14.052;2023-08-17T03:02:19;10.73;;;7.90;;
65275;SDS011;51875;49.994;14.052;2023-08-17T03:03:35;11.05;;;8.55;;
65275;SDS011;51875;49.994;14.052;2023-08-17T03:04:51;11.85;;;8.13;;
65275;SDS011;51875;49.994;14.052;2023-08-17T03:06:07;11.38;;;7.85;;
65275;SDS011;51875;49.994;14.052;2023-08-17T03:07:22;10.48;;;7.75;;
65275;SDS011;51875;49.994;14.052;2023-08-17T03:08:38;9.05;;;7.07;;
65275;SDS011;51875;49.994;14.052;2023-08-17T03:09:54;9.55;;;7.50;;
65275;SDS011;51875;49.994;14.052;2023-08-17T03:11:11;10.77;;;7.18;;
65275;SDS011;51875;49.994;14.052;2023-08-17T03:12:27;9.90;;;7.50;;
65275;SDS011;51875;49.994;14.052;2023-08-17T03:13:42;12.60;;;7.18;;
65275;SDS011;51875;49.994;14.052;2023-08-17T03:14:58;10.60;;;7.63;;
65275;SDS011;51875;49.994;14.052;2023-08-17T03:16:14;10.38;;;7.95;;
65275;SDS011;51875;49.994;14.052;2023-08-17T03:17:30;9.50;;;7.65;;
65275;SDS011;51875;49.994;14.052;2023-08-17T03:18:46;12.23;;;8.00;;
65275;SDS011;51875;49.994;14.052;2023-08-17T03:20:03;12.45;;;9.15;;
65275;SDS011;51875;49.994;14.052;2023-08-17T03:21:21;13.10;;;9.02;;
65275;SDS011;51875;49.994;14.052;2023-08-17T03:22:37;12.23;;;8.82;;
65275;SDS011;51875;49.994;14.052;2023-08-17T03:23:53;11.35;;;8.45;;
65275;SDS011;51875;49.994;14.052;2023-08-17T03:25:10;12.27;;;8.50;;
65275;SDS011;51875;49.994;14.052;2023-08-17T03:26:25;11.50;;;8.70;;
65275;SDS011;51875;49.994;14.052;2023-08-17T03:27:41;10.77;;;8.23;;
65275;SDS011;51875;49.994;14.052;2023-08-17T03:28:57;10.55;;;8.93;;
65275;SDS011;51875;49.994;14.052;2023-08-17T03:30:12;10.73;;;8.13;;
65275;SDS011;51875;49.994;14.052;2023-08-17T03:31:28;10.65;;;8.10;;
65275;SDS011;51875;49.994;14.052;2023-08-17T03:32:43;14.10;;;8.55;;
65275;SDS011;51875;49.994;14.052;2023-08-17T03:33:59;10.23;;;7.63;;
65275;SDS011;51875;49.994;14.052;2023-08-17T03:35:15;13.38;;;8.40;;
65275;SDS011;51875;49.994;14.052;2023-08-17T03:36:31;10.73;;;7.85;;
65275;SDS011;51875;49.994;14.052;2023-08-17T03:37:46;10.45;;;7.65;;
65275;SDS011;51875;49.994;14.052;2023-08-17T03:39:02;11.55;;;8.23;;
65275;SDS011;51875;49.994;14.052;2023-08-17T03:40:18;9.60;;;7.80;;
65275;SDS011;51875;49.994;14.052;2023-08-17T03:41:33;14.02;;;8.80;;
65275;SDS011;51875;49.994;14.052;2023-08-17T03:42:51;12.65;;;8.30;;
65275;SDS011;51875;49.994;14.052;2023-08-17T03:44:10;15.00;;;8.50;;
65275;SDS011;51875;49.994;14.052;2023-08-17T03:45:25;11.63;;;9.00;;
65275;SDS011;51875;49.994;14.052;2023-08-17T03:46:41;12.55;;;8.55;;
65275;SDS011;51875;49.994;14.052;2023-08-17T03:47:56;10.90;;;8.00;;
65275;SDS011;51875;49.994;14.052;2023-08-17T03:49:12;12.02;;;8.27;;
65275;SDS011;51875;49.994;14.052;2023-08-17T03:50:28;14.25;;;8.45;;
65275;SDS011;51875;49.994;14.052;2023-08-17T03:51:43;14.05;;;8.73;;
65275;SDS011;51875;49.994;14.052;2023-08-17T03:52:59;12.02;;;8.57;;
65275;SDS011;51875;49.994;14.052;2023-08-17T03:54:14;13.38;;;9.05;;
65275;SDS011;51875;49.994;14.052;2023-08-17T03:55:30;16.00;;;9.35;;
65275;SDS011;51875;49.994;14.052;2023-08-17T03:56:46;14.25;;;8.88;;
65275;SDS011;51875;49.994;14.052;2023-08-17T03:58:02;13.68;;;8.80;;
65275;SDS011;51875;49.994;14.052;2023-08-17T03:59:17;11.05;;;8.80;;
65275;SDS011;51875;49.994;14.052;2023-08-17T04:00:33;11.70;;;8.95;;
65275;SDS011;51875;49.994;14.052;2023-08-17T04:01:50;11.02;;;8.35;;
65275;SDS011;51875;49.994;14.052;2023-08-17T04:03:06;11.27;;;8.35;;
65275;SDS011;51875;49.994;14.052;2023-08-17T04:04:22;11.05;;;8.23;;
65275;SDS011;51875;49.994;14.052;2023-08-17T04:05:37;11.55;;;8.20;;
65275;SDS011;51875;49.994;14.052;2023-08-17T04:06:53;12.55;;;8.85;;
65275;SDS011;51875;49.994;14.052;2023-08-17T04:08:09;10.60;;;8.05;;
65275;SDS011;51875;49.994;14.052;2023-08-17T04:09:24;10.05;;;7.47;;
65275;SDS011;51875;49.994;14.052;2023-08-17T04:10:40;10.23;;;8.40;;
65275;SDS011;51875;49.994;14.052;2023-08-17T04:11:55;13.80;;;8.02;;
65275;SDS011;51875;49.994;14.052;2023-08-17T04:13:12;10.43;;;8.38;;
65275;SDS011;51875;49.994;14.052;2023-08-17T04:14:28;13.07;;;8.32;;
65275;SDS011;51875;49.994;14.052;2023-08-17T04:15:43;12.23;;;8.65;;
65275;SDS011;51875;49.994;14.052;2023-08-17T04:16:59;12.82;;;8.85;;
65275;SDS011;51875;49.994;14.052;2023-08-17T04:18:15;13.45;;;9.45;;
65275;SDS011;51875;49.994;14.052;2023-08-17T04:19:30;12.20;;;9.40;;
65275;SDS011;51875;49.994;14.052;2023-08-17T04:20:46;16.83;;;9.18;;
65275;SDS011;51875;49.994;14.052;2023-08-17T04:22:02;13.82;;;8.95;;
65275;SDS011;51875;49.994;14.052;2023-08-17T04:23:17;11.80;;;8.68;;
65275;SDS011;51875;49.994;14.052;2023-08-17T04:24:33;18.25;;;10.27;;
65275;SDS011;51875;49.994;14.052;2023-08-17T04:25:49;16.70;;;10.20;;
65275;SDS011;51875;49.994;14.052;2023-08-17T04:27:04;14.65;;;10.07;;
65275;SDS011;51875;49.994;14.052;2023-08-17T04:28:20;15.10;;;10.25;;
65275;SDS011;51875;49.994;14.052;2023-08-17T04:29:37;15.35;;;10.63;;
65275;SDS011;51875;49.994;14.052;2023-08-17T04:30:53;16.48;;;10.13;;
65275;SDS011;51875;49.994;14.052;2023-08-17T04:32:13;13.30;;;9.65;;
65275;SDS011;51875;49.994;14.052;2023-08-17T04:33:29;16.25;;;9.57;;
65275;SDS011;51875;49.994;14.052;2023-08-17T04:34:45;14.23;;;8.82;;
65275;SDS011;51875;49.994;14.052;2023-08-17T04:36:01;12.25;;;8.75;;
65275;SDS011;51875;49.994;14.052;2023-08-17T04:37:16;14.52;;;10.43;;
65275;SDS011;51875;49.994;14.052;2023-08-17T04:38:32;14.90;;;9.30;;
65275;SDS011;51875;49.994;14.052;2023-08-17T04:39:47;11.82;;;9.00;;
65275;SDS011;51875;49.994;14.052;2023-08-17T04:41:04;15.07;;;9.82;;
65275;SDS011;51875;49.994;14.052;2023-08-17T04:42:20;12.35;;;9.57;;
65275;SDS011;51875;49.994;14.052;2023-08-17T04:43:35;16.40;;;9.77;;
65275;SDS011;51875;49.994;14.052;2023-08-17T04:44:51;14.32;;;9.90;;
65275;SDS011;51875;49.994;14.052;2023-08-17T04:46:06;13.98;;;10.25;;
65275;SDS011;51875;49.994;14.052;2023-08-17T04:47:22;15.38;;;10.27;;
65275;SDS011;51875;49.994;14.052;2023-08-17T04:48:37;13.38;;;9.80;;
65275;SDS011;51875;49.994;14.052;2023-08-17T04:49:53;12.45;;;9.02;;
65275;SDS011;51875;49.994;14.052;2023-08-17T04:51:08;12.13;;;8.85;;
65275;SDS011;51875;49.994;14.052;2023-08-17T04:52:24;13.63;;;9.85;;
65275;SDS011;51875;49.994;14.052;2023-08-17T04:53:40;13.93;;;9.43;;
65275;SDS011;51875;49.994;14.052;2023-08-17T04:54:55;12.63;;;8.55;;
65275;SDS011;51875;49.994;14.052;2023-08-17T04:56:11;11.25;;;8.88;;
65275;SDS011;51875;49.994;14.052;2023-08-17T04:57:27;10.82;;;8.20;;
65275;SDS011;51875;49.994;14.052;2023-08-17T04:58:43;11.35;;;8.00;;
65275;SDS011;51875;49.994;14.052;2023-08-17T04:59:58;12.68;;;9.55;;
65275;SDS011;51875;49.994;14.052;2023-08-17T05:01:14;12.35;;;9.18;;
65275;SDS011;51875;49.994;14.052;2023-08-17T05:02:30;11.65;;;9.15;;
65275;SDS011;51875;49.994;14.052;2023-08-17T05:03:45;14.73;;;10.05;;
65275;SDS011;51875;49.994;14.052;2023-08-17T05:05:04;13.77;;;9.23;;
65275;SDS011;51875;49.994;14.052;2023-08-17T05:06:21;14.07;;;9.68;;
65275;SDS011;51875;49.994;14.052;2023-08-17T05:07:37;13.82;;;9.63;;
65275;SDS011;51875;49.994;14.052;2023-08-17T05:08:52;12.90;;;9.25;;
65275;SDS011;51875;49.994;14.052;2023-08-17T05:10:08;14.88;;;9.95;;
65275;SDS011;51875;49.994;14.052;2023-08-17T05:11:24;12.68;;;9.32;;
65275;SDS011;51875;49.994;14.052;2023-08-17T05:12:39;12.75;;;9.07;;
65275;SDS011;51875;49.994;14.052;2023-08-17T05:13:55;15.02;;;9.48;;
65275;SDS011;51875;49.994;14.052;2023-08-17T05:15:11;13.18;;;9.10;;
65275;SDS011;51875;49.994;14.052;2023-08-17T05:16:26;14.15;;;9.45;;
65275;SDS011;51875;49.994;14.052;2023-08-17T05:17:42;12.55;;;9.85;;
65275;SDS011;51875;49.994;14.052;2023-08-17T05:18:57;11.65;;;8.90;;
65275;SDS011;51875;49.994;14.052;2023-08-17T05:20:14;11.95;;;9.75;;
65275;SDS011;51875;49.994;14.052;2023-08-17T05:21:30;12.35;;;9.73;;
65275;SDS011;51875;49.994;14.052;2023-08-17T05:22:46;11.80;;;9.70;;
65275;SDS011;51875;49.994;14.052;2023-08-17T05:24:02;16.25;;;9.85;;
65275;SDS011;51875;49.994;14.052;2023-08-17T05:25:18;13.88;;;9.65;;
65275;SDS011;51875;49.994;14.052;2023-08-17T05:26:33;14.77;;;10.45;;
65275;SDS011;51875;49.994;14.052;2023-08-17T05:27:49;14.93;;;10.63;;
65275;SDS011;51875;49.994;14.052;2023-08-17T05:29:05;13.88;;;10.05;;
65275;SDS011;51875;49.994;14.052;2023-08-17T05:30:20;16.20;;;10.68;;
65275;SDS011;51875;49.994;14.052;2023-08-17T05:31:36;14.77;;;9.55;;
65275;SDS011;51875;49.994;14.052;2023-08-17T05:32:52;14.15;;;10.32;;
65275;SDS011;51875;49.994;14.052;2023-08-17T05:34:07;13.93;;;10.40;;
65275;SDS011;51875;49.994;14.052;2023-08-17T05:35:23;14.55;;;10.52;;
65275;SDS011;51875;49.994;14.052;2023-08-17T05:36:38;17.55;;;11.07;;
65275;SDS011;51875;49.994;14.052;2023-08-17T05:37:54;15.80;;;11.15;;
65275;SDS011;51875;49.994;14.052;2023-08-17T05:39:10;15.70;;;11.30;;
65275;SDS011;51875;49.994;14.052;2023-08-17T05:40:25;15.90;;;11.07;;
65275;SDS011;51875;49.994;14.052;2023-08-17T05:41:41;14.93;;;10.75;;
65275;SDS011;51875;49.994;14.052;2023-08-17T05:42:57;13.82;;;10.20;;
65275;SDS011;51875;49.994;14.052;2023-08-17T05:44:12;14.65;;;10.50;;
65275;SDS011;51875;49.994;14.052;2023-08-17T05:45:30;15.00;;;10.57;;
65275;SDS011;51875;49.994;14.052;2023-08-17T05:46:45;16.13;;;10.55;;
65275;SDS011;51875;49.994;14.052;2023-08-17T05:48:01;13.55;;;9.75;;
65275;SDS011;51875;49.994;14.052;2023-08-17T05:49:16;15.05;;;10.60;;
65275;SDS011;51875;49.994;14.052;2023-08-17T05:50:32;12.82;;;9.95;;
65275;SDS011;51875;49.994;14.052;2023-08-17T05:51:47;13.18;;;9.45;;
65275;SDS011;51875;49.994;14.052;2023-08-17T05:53:03;11.27;;;9.63;;
65275;SDS011;51875;49.994;14.052;2023-08-17T05:54:19;13.38;;;9.85;;
65275;SDS011;51875;49.994;14.052;2023-08-17T05:55:34;12.75;;;10.23;;
65275;SDS011;51875;49.994;14.052;2023-08-17T05:56:50;12.60;;;9.38;;
65275;SDS011;51875;49.994;14.052;2023-08-17T05:58:06;12.90;;;9.57;;
65275;SDS011;51875;49.994;14.052;2023-08-17T05:59:21;13.45;;;8.98;;
65275;SDS011;51875;49.994;14.052;2023-08-17T06:00:37;12.60;;;10.00;;
65275;SDS011;51875;49.994;14.052;2023-08-17T06:01:53;11.73;;;9.27;;
65275;SDS011;51875;49.994;14.052;2023-08-17T06:03:09;13.82;;;9.48;;
65275;SDS011;51875;49.994;14.052;2023-08-17T06:04:24;12.23;;;9.02;;
65275;SDS011;51875;49.994;14.052;2023-08-17T06:05:41;10.90;;;9.25;;
65275;SDS011;51875;49.994;14.052;2023-08-17T06:06:57;12.23;;;8.63;;
65275;SDS011;51875;49.994;14.052;2023-08-17T06:08:13;13.50;;;9.07;;
65275;SDS011;51875;49.994;14.052;2023-08-17T06:09:28;12.77;;;9.57;;
65275;SDS011;51875;49.994;14.052;2023-08-17T06:10:44;13.45;;;8.43;;
65275;SDS011;51875;49.994;14.052;2023-08-17T06:11:59;11.43;;;9.18;;
65275;SDS011;51875;49.994;14.052;2023-08-17T06:13:15;14.43;;;8.68;;
65275;SDS011;51875;49.994;14.052;2023-08-17T06:14:32;12.48;;;9.38;;
65275;SDS011;51875;49.994;14.052;2023-08-17T06:15:48;14.52;;;9.50;;
65275;SDS011;51875;49.994;14.052;2023-08-17T06:17:03;14.27;;;9.95;;
65275;SDS011;51875;49.994;14.052;2023-08-17T06:18:19;13.50;;;9.52;;
65275;SDS011;51875;49.994;14.052;2023-08-17T06:19:35;11.13;;;9.45;;
65275;SDS011;51875;49.994;14.052;2023-08-17T06:20:51;12.70;;;9.00;;
65275;SDS011;51875;49.994;14.052;2023-08-17T06:22:08;10.90;;;9.32;;
65275;SDS011;51875;49.994;14.052;2023-08-17T06:23:24;12.95;;;9.55;;
65275;SDS011;51875;49.994;14.052;2023-08-17T06:24:40;11.13;;;8.88;;
65275;SDS011;51875;49.994;14.052;2023-08-17T06:25:56;11.25;;;9.07;;
65275;SDS011;51875;49.994;14.052;2023-08-17T06:27:14;11.25;;;9.48;;
65275;SDS011;51875;49.994;14.052;2023-08-17T06:28:30;12.18;;;8.80;;
65275;SDS011;51875;49.994;14.052;2023-08-17T06:29:46;13.05;;;8.80;;
65275;SDS011;51875;49.994;14.052;2023-08-17T06:31:02;14.32;;;9.23;;
65275;SDS011;51875;49.994;14.052;2023-08-17T06:32:17;12.13;;;8.50;;
65275;SDS011;51875;49.994;14.052;2023-08-17T06:33:33;11.55;;;8.90;;
65275;SDS011;51875;49.994;14.052;2023-08-17T06:34:49;11.63;;;8.68;;
65275;SDS011;51875;49.994;14.052;2023-08-17T06:36:04;12.18;;;8.98;;
65275;SDS011;51875;49.994;14.052;2023-08-17T06:37:20;11.68;;;9.15;;
65275;SDS011;51875;49.994;14.052;2023-08-17T06:38:35;12.32;;;9.77;;
65275;SDS011;51875;49.994;14.052;2023-08-17T06:39:51;13.73;;;9.07;;
65275;SDS011;51875;49.994;14.052;2023-08-17T06:41:07;13.73;;;9.02;;
65275;SDS011;51875;49.994;14.052;2023-08-17T06:42:22;13.63;;;8.88;;
65275;SDS011;51875;49.994;14.052;2023-08-17T06:43:38;12.55;;;9.13;;
65275;SDS011;51875;49.994;14.052;2023-08-17T06:44:53;11.23;;;8.60;;
65275;SDS011;51875;49.994;14.052;2023-08-17T06:46:09;12.55;;;9.23;;
65275;SDS011;51875;49.994;14.052;2023-08-17T06:47:24;12.27;;;9.13;;
65275;SDS011;51875;49.994;14.052;2023-08-17T06:48:40;9.90;;;8.25;;
65275;SDS011;51875;49.994;14.052;2023-08-17T06:49:56;9.75;;;8.10;;
65275;SDS011;51875;49.994;14.052;2023-08-17T06:51:12;13.00;;;8.82;;
65275;SDS011;51875;49.994;14.052;2023-08-17T06:52:28;12.05;;;8.98;;
65275;SDS011;51875;49.994;14.052;2023-08-17T06:53:43;10.70;;;8.48;;
65275;SDS011;51875;49.994;14.052;2023-08-17T06:55:00;12.02;;;8.40;;
65275;SDS011;51875;49.994;14.052;2023-08-17T06:56:15;12.15;;;8.82;;
65275;SDS011;51875;49.994;14.052;2023-08-17T06:57:31;11.80;;;8.40;;
65275;SDS011;51875;49.994;14.052;2023-08-17T06:58:46;10.43;;;8.55;;
65275;SDS011;51875;49.994;14.052;2023-08-17T07:00:02;13.73;;;8.25;;
65275;SDS011;51875;49.994;14.052;2023-08-17T07:01:20;10.75;;;8.40;;
65275;SDS011;51875;49.994;14.052;2023-08-17T07:02:36;11.32;;;8.48;;
65275;SDS011;51875;49.994;14.052;2023-08-17T07:03:52;10.48;;;8.20;;
65275;SDS011;51875;49.994;14.052;2023-08-17T07:05:07;10.32;;;7.78;;
65275;SDS011;51875;49.994;14.052;2023-08-17T07:06:26;10.40;;;8.20;;
65275;SDS011;51875;49.994;14.052;2023-08-17T07:07:42;10.27;;;7.80;;
65275;SDS011;51875;49.994;14.052;2023-08-17T07:08:58;11.07;;;8.20;;
65275;SDS011;51875;49.994;14.052;2023-08-17T07:10:14;10.15;;;7.93;;
65275;SDS011;51875;49.994;14.052;2023-08-17T07:11:30;13.45;;;7.90;;
65275;SDS011;51875;49.994;14.052;2023-08-17T07:12:46;9.93;;;8.15;;
65275;SDS011;51875;49.994;14.052;2023-08-17T07:14:01;11.55;;;7.82;;
65275;SDS011;51875;49.994;14.052;2023-08-17T07:15:17;10.57;;;7.72;;
65275;SDS011;51875;49.994;14.052;2023-08-17T07:16:33;12.68;;;7.82;;
65275;SDS011;51875;49.994;14.052;2023-08-17T07:17:48;12.93;;;8.30;;
65275;SDS011;51875;49.994;14.052;2023-08-17T07:19:04;9.48;;;7.35;;
65275;SDS011;51875;49.994;14.052;2023-08-17T07:20:20;8.88;;;7.43;;
65275;SDS011;51875;49.994;14.052;2023-08-17T07:21:35;9.50;;;8.25;;
65275;SDS011;51875;49.994;14.052;2023-08-17T07:22:51;10.88;;;8.18;;
65275;SDS011;51875;49.994;14.052;2023-08-17T07:24:13;9.20;;;7.57;;
65275;SDS011;51875;49.994;14.052;2023-08-17T07:25:30;8.93;;;7.10;;
65275;SDS011;51875;49.994;14.052;2023-08-17T07:26:45;9.77;;;7.78;;
65275;SDS011;51875;49.994;14.052;2023-08-17T07:28:01;10.10;;;7.38;;
65275;SDS011;51875;49.994;14.052;2023-08-17T07:29:17;10.40;;;7.68;;
65275;SDS011;51875;49.994;14.052;2023-08-17T07:30:32;12.77;;;7.97;;